Time;durP1;ratioP1;P1;durP2;ratioP2;P2;SDS_P1;SDS_P2;PMS_P1;PMS_P2;Temp;Humidity;BMP_temperature;BMP_pressure;BME280_temperature;BME280_humidity;BME280_pressure;Samples;Min_cycle;Max_cycle;Signal;HPM_P1;HPM_P2
2022/06/25 00:00:51;;;;;;;6.40;4.68;;;;;;;;;;5002068;28;20216;-66
2022/06/25 00:03:16;;;;;;;4.85;3.10;;;;;;;;;;5002124;28;20220;-66
2022/06/25 00:05:42;;;;;;;5.22;3.17;;;;;;;;;;5001376;28;20691;-66
2022/06/25 00:08:07;;;;;;;5.72;3.17;;;;;;;;;;5001044;28;20355;-67
2022/06/25 00:10:32;;;;;;;5.90;2.90;;;;;;;;;;4994557;28;20212;-66
2022/06/25 00:12:58;;;;;;;5.55;2.97;;;;;;;;;;4993518;28;20216;-67
2022/06/25 00:15:23;;;;;;;4.63;2.92;;;;;;;;;;4994115;28;20251;-67
2022/06/25 00:17:48;;;;;;;6.70;2.60;;;;;;;;;;5010140;28;20594;-67
2022/06/25 00:20:14;;;;;;;4.68;3.60;;;;;;;;;;5000839;28;20577;-66
2022/06/25 00:22:39;;;;;;;5.85;3.38;;;;;;;;;;5001992;28;20216;-66
2022/06/25 00:25:04;;;;;;;4.82;3.13;;;;;;;;;;5000909;28;20216;-66
2022/06/25 00:27:30;;;;;;;4.82;3.20;;;;;;;;;;5001924;28;20212;-67
2022/06/25 00:29:55;;;;;;;4.88;2.85;;;;;;;;;;5002570;28;20315;-66
2022/06/25 00:32:20;;;;;;;4.47;3.05;;;;;;;;;;4995754;28;20466;-66
2022/06/25 00:34:46;;;;;;;3.80;3.00;;;;;;;;;;4994981;28;20251;-67
2022/06/25 00:37:11;;;;;;;4.28;3.05;;;;;;;;;;5009820;28;20226;-67
2022/06/25 00:39:36;;;;;;;5.28;3.22;;;;;;;;;;5000414;28;20259;-67
2022/06/25 00:42:02;;;;;;;6.72;2.83;;;;;;;;;;5001636;28;20684;-66
2022/06/25 00:44:27;;;;;;;5.43;3.42;;;;;;;;;;5002107;28;20270;-66
2022/06/25 00:46:53;;;;;;;5.18;3.33;;;;;;;;;;5002368;28;20302;-66
2022/06/25 00:49:18;;;;;;;5.00;3.15;;;;;;;;;;5020547;28;20796;-66
2022/06/25 00:51:44;;;;;;;5.05;2.90;;;;;;;;;;5002125;28;20220;-65
2022/06/25 00:54:09;;;;;;;5.15;2.72;;;;;;;;;;4998155;28;20606;-66
2022/06/25 00:56:36;;;;;;;5.35;2.95;;;;;;;;;;4994179;28;20589;-66
2022/06/25 00:59:02;;;;;;;8.20;3.38;;;;;;;;;;4992917;28;20806;-66
2022/06/25 01:01:28;;;;;;;5.10;2.88;;;;;;;;;;4996904;28;20210;-66
2022/06/25 01:03:53;;;;;;;4.70;2.80;;;;;;;;;;5021224;28;20219;-65
2022/06/25 01:06:18;;;;;;;6.60;2.80;;;;;;;;;;5020238;28;20219;-66
2022/06/25 01:08:44;;;;;;;6.38;3.50;;;;;;;;;;5020129;28;20222;-66
2022/06/25 01:11:11;;;;;;;5.47;3.33;;;;;;;;;;5003860;28;20261;-66
2022/06/25 01:13:36;;;;;;;5.18;3.38;;;;;;;;;;5003217;28;20374;-66
2022/06/25 01:16:01;;;;;;;3.88;3.08;;;;;;;;;;5019396;28;20701;-65
2022/06/25 01:18:26;;;;;;;6.65;3.30;;;;;;;;;;5013434;28;20224;-65
2022/06/25 01:20:52;;;;;;;5.15;3.10;;;;;;;;;;5012955;28;20208;-66
2022/06/25 01:23:17;;;;;;;4.45;3.60;;;;;;;;;;5015007;28;20219;-66
2022/06/25 01:25:42;;;;;;;6.45;3.15;;;;;;;;;;5020569;28;20243;-66
2022/06/25 01:28:08;;;;;;;4.50;3.13;;;;;;;;;;5004111;28;20244;-65
2022/06/25 01:30:33;;;;;;;4.70;3.03;;;;;;;;;;5004363;28;20615;-66
2022/06/25 01:32:58;;;;;;;5.53;3.30;;;;;;;;;;5004827;28;20220;-65
2022/06/25 01:35:24;;;;;;;5.63;3.13;;;;;;;;;;5006571;28;20238;-66
2022/06/25 01:37:49;;;;;;;6.53;3.40;;;;;;;;;;5023805;28;20217;-66
2022/06/25 01:40:15;;;;;;;7.35;4.20;;;;;;;;;;5018771;28;20640;-66
2022/06/25 01:42:58;;;;;;;4.82;3.22;;;;;;;;;;5015565;28;20505;-66
2022/06/25 01:45:23;;;;;;;5.60;3.67;;;;;;;;;;4996586;28;20263;-66
2022/06/25 01:47:49;;;;;;;4.93;3.30;;;;;;;;;;5004029;28;20211;-66
2022/06/25 01:50:14;;;;;;;4.53;3.65;;;;;;;;;;5022834;28;20365;-66
2022/06/25 01:52:40;;;;;;;7.60;3.47;;;;;;;;;;5023538;28;20714;-66
2022/06/25 01:55:06;;;;;;;4.80;3.28;;;;;;;;;;5023083;28;20621;-66
2022/06/25 01:57:31;;;;;;;6.70;3.70;;;;;;;;;;5022687;28;20239;-65
2022/06/25 01:59:57;;;;;;;7.68;3.80;;;;;;;;;;5023929;28;20231;-66
2022/06/25 02:02:22;;;;;;;7.03;3.80;;;;;;;;;;5019406;28;20211;-66
2022/06/25 02:04:47;;;;;;;7.55;4.18;;;;;;;;;;5015689;28;20706;-66
2022/06/25 02:07:12;;;;;;;5.78;3.72;;;;;;;;;;5015178;28;20756;-65
2022/06/25 02:09:38;;;;;;;5.35;3.35;;;;;;;;;;5015530;28;20227;-66
2022/06/25 02:12:04;;;;;;;5.25;3.60;;;;;;;;;;5002838;28;20262;-66
2022/06/25 02:14:29;;;;;;;58.58;8.35;;;;;;;;;;5005564;28;20216;-66
2022/06/25 02:16:54;;;;;;;8.77;4.28;;;;;;;;;;5023657;28;20203;-66
2022/06/25 02:19:19;;;;;;;5.60;3.92;;;;;;;;;;5021950;28;20334;-66
2022/06/25 02:21:45;;;;;;;8.65;4.55;;;;;;;;;;5023447;28;20698;-66
2022/06/25 02:24:10;;;;;;;6.93;4.15;;;;;;;;;;5020996;28;20965;-66
2022/06/25 02:26:35;;;;;;;7.93;4.55;;;;;;;;;;5004948;28;20561;-66
2022/06/25 02:29:01;;;;;;;6.38;4.47;;;;;;;;;;4995624;28;20581;-65
2022/06/25 02:31:26;;;;;;;7.18;4.45;;;;;;;;;;4997186;28;20672;-66
2022/06/25 02:33:51;;;;;;;7.20;4.05;;;;;;;;;;5002642;28;20311;-65
2022/06/25 02:36:17;;;;;;;6.28;4.38;;;;;;;;;;5013579;28;20285;-66
2022/06/25 02:38:42;;;;;;;7.07;4.25;;;;;;;;;;5021935;28;20231;-66
2022/06/25 02:41:07;;;;;;;6.18;4.13;;;;;;;;;;5022844;28;20215;-66
2022/06/25 02:43:32;;;;;;;6.57;4.68;;;;;;;;;;5018521;28;20691;-66
2022/06/25 02:45:58;;;;;;;5.82;4.05;;;;;;;;;;5003097;28;20706;-66
2022/06/25 02:48:23;;;;;;;7.60;4.53;;;;;;;;;;4996733;28;20470;-66
2022/06/25 02:50:48;;;;;;;8.95;4.35;;;;;;;;;;4995795;28;20228;-65
2022/06/25 02:53:14;;;;;;;5.47;4.03;;;;;;;;;;4993896;28;20212;-66
2022/06/25 03:01:06;;;;;;;7.30;4.40;;;;;;;;;;5002168;28;20224;-65
2022/06/25 03:03:32;;;;;;;6.07;4.75;;;;;;;;;;5002812;28;20204;-65
2022/06/25 03:05:57;;;;;;;8.57;4.70;;;;;;;;;;5003912;28;20694;-66
2022/06/25 03:08:22;;;;;;;7.65;4.35;;;;;;;;;;5021024;28;20648;-66
2022/06/25 03:10:48;;;;;;;6.25;3.67;;;;;;;;;;5004384;28;20295;-66
2022/06/25 03:13:13;;;;;;;6.50;4.30;;;;;;;;;;4994819;28;20581;-66
2022/06/25 03:15:38;;;;;;;7.65;4.28;;;;;;;;;;4994907;28;20270;-65
2022/06/25 03:18:03;;;;;;;8.43;4.53;;;;;;;;;;4999660;28;20216;-64
2022/06/25 03:20:29;;;;;;;7.47;4.28;;;;;;;;;;5002346;28;20263;-65
2022/06/25 03:22:55;;;;;;;8.50;4.00;;;;;;;;;;5008705;28;20494;-64
2022/06/25 03:25:20;;;;;;;7.10;3.95;;;;;;;;;;5002520;28;20247;-62
2022/06/25 03:27:46;;;;;;;6.30;4.07;;;;;;;;;;5002969;28;20274;-63
2022/06/25 03:30:11;;;;;;;7.50;4.37;;;;;;;;;;5000835;28;20415;-64
2022/06/25 03:32:36;;;;;;;6.28;3.78;;;;;;;;;;5018639;28;20208;-63
2022/06/25 03:35:01;;;;;;;6.97;3.83;;;;;;;;;;5010248;28;20812;-64
2022/06/25 03:37:27;;;;;;;4.93;3.97;;;;;;;;;;5013988;28;20233;-64
2022/06/25 03:39:52;;;;;;;7.60;3.60;;;;;;;;;;5016164;28;20286;-64
2022/06/25 03:42:17;;;;;;;6.75;3.90;;;;;;;;;;5020852;28;20322;-64
2022/06/25 03:44:43;;;;;;;8.75;3.97;;;;;;;;;;5008065;28;20212;-64
2022/06/25 03:47:08;;;;;;;5.57;3.50;;;;;;;;;;5001849;28;20746;-64
2022/06/25 03:49:33;;;;;;;8.82;3.72;;;;;;;;;;4997200;28;20220;-64
2022/06/25 03:51:59;;;;;;;5.93;3.38;;;;;;;;;;5001833;28;20219;-65
2022/06/25 03:54:24;;;;;;;6.68;3.40;;;;;;;;;;5000837;28;20464;-65
2022/06/25 03:56:50;;;;;;;6.38;3.63;;;;;;;;;;4993730;28;20736;-65
2022/06/25 03:59:16;;;;;;;5.25;3.53;;;;;;;;;;4993620;28;20220;-64
2022/06/25 04:01:41;;;;;;;7.05;3.65;;;;;;;;;;4994482;28;20246;-64
2022/06/25 04:04:06;;;;;;;9.20;3.50;;;;;;;;;;5000532;28;20215;-64
2022/06/25 04:06:32;;;;;;;7.30;3.60;;;;;;;;;;5001565;28;20235;-64
2022/06/25 04:08:57;;;;;;;6.78;3.83;;;;;;;;;;5002258;28;20212;-62
2022/06/25 04:11:22;;;;;;;5.55;3.15;;;;;;;;;;5000795;28;20266;-62
2022/06/25 04:13:48;;;;;;;6.03;3.50;;;;;;;;;;5002366;28;20217;-60
2022/06/25 04:16:13;;;;;;;9.10;3.63;;;;;;;;;;5001862;28;20565;-60
2022/06/25 04:18:38;;;;;;;5.38;3.60;;;;;;;;;;5014874;28;20270;-60
2022/06/25 04:21:04;;;;;;;4.65;3.13;;;;;;;;;;5012757;28;20675;-60
2022/06/25 04:23:30;;;;;;;6.35;3.38;;;;;;;;;;5013444;28;20214;-60
2022/06/25 04:25:55;;;;;;;7.15;3.97;;;;;;;;;;5013278;28;20271;-60
2022/06/25 04:31:04;;;;;;;8.63;4.10;;;;;;;;;;5001820;28;20718;-62
2022/06/25 04:33:29;;;;;;;5.80;3.90;;;;;;;;;;5001299;28;20216;-59
2022/06/25 04:35:55;;;;;;;5.55;4.07;;;;;;;;;;5008713;28;20742;-59
2022/06/25 04:38:21;;;;;;;8.57;4.05;;;;;;;;;;5019464;28;20224;-59
2022/06/25 04:40:46;;;;;;;7.60;4.55;;;;;;;;;;5017703;28;20220;-59
2022/06/25 04:43:12;;;;;;;9.63;4.63;;;;;;;;;;5012202;28;20537;-59
2022/06/25 04:45:37;;;;;;;6.35;4.22;;;;;;;;;;4993620;28;20224;-59
2022/06/25 04:48:03;;;;;;;6.30;4.47;;;;;;;;;;4996952;28;20223;-60
2022/06/25 04:50:28;;;;;;;9.95;4.35;;;;;;;;;;5001539;28;20595;-59
2022/06/25 04:52:53;;;;;;;7.82;4.80;;;;;;;;;;5000577;28;20251;-59
2022/06/25 04:55:19;;;;;;;8.20;4.10;;;;;;;;;;5001818;28;21364;-62
2022/06/25 04:57:45;;;;;;;9.23;4.70;;;;;;;;;;5003017;28;20595;-61
2022/06/25 05:00:11;;;;;;;8.45;4.25;;;;;;;;;;5023399;28;20590;-62
2022/06/25 05:02:37;;;;;;;9.43;4.38;;;;;;;;;;5022719;28;20239;-62
2022/06/25 05:05:02;;;;;;;6.57;4.43;;;;;;;;;;5016650;28;20302;-64
2022/06/25 05:07:28;;;;;;;6.65;4.50;;;;;;;;;;5016032;28;21025;-62
2022/06/25 05:09:53;;;;;;;6.50;4.43;;;;;;;;;;5001887;28;20320;-62
2022/06/25 05:15:02;;;;;;;8.23;4.45;;;;;;;;;;5003753;28;20271;-61
2022/06/25 05:17:28;;;;;;;6.57;4.47;;;;;;;;;;5004754;28;20212;-61
2022/06/25 05:19:53;;;;;;;7.80;3.92;;;;;;;;;;5004068;28;20236;-61
2022/06/25 05:22:19;;;;;;;9.63;4.00;;;;;;;;;;5003404;28;20220;-61
2022/06/25 05:24:44;;;;;;;6.50;4.13;;;;;;;;;;5007736;28;20219;-62
2022/06/25 05:27:10;;;;;;;4.97;3.80;;;;;;;;;;5001338;28;20217;-61
2022/06/25 05:29:36;;;;;;;5.30;3.83;;;;;;;;;;5015649;28;20214;-62
2022/06/25 05:32:01;;;;;;;7.50;3.42;;;;;;;;;;5006678;28;20209;-61
2022/06/25 05:34:26;;;;;;;6.75;4.38;;;;;;;;;;5003285;28;20579;-62
2022/06/25 05:36:51;;;;;;;5.80;3.13;;;;;;;;;;5019116;28;20224;-62
2022/06/25 05:39:17;;;;;;;6.75;3.63;;;;;;;;;;5015070;28;20235;-63
2022/06/25 05:41:42;;;;;;;8.45;3.60;;;;;;;;;;5005961;28;20456;-62
2022/06/25 05:44:07;;;;;;;5.38;3.28;;;;;;;;;;5004291;28;20213;-63
2022/06/25 05:46:33;;;;;;;5.95;3.25;;;;;;;;;;5021201;28;20221;-63
2022/06/25 05:48:58;;;;;;;6.25;3.85;;;;;;;;;;5017809;28;21077;-63
2022/06/25 05:51:23;;;;;;;6.05;3.45;;;;;;;;;;5014459;28;20930;-66
2022/06/25 05:53:49;;;;;;;4.50;3.30;;;;;;;;;;5011649;28;20223;-68
2022/06/25 05:56:14;;;;;;;6.40;3.47;;;;;;;;;;5019511;28;20208;-67
2022/06/25 05:58:40;;;;;;;6.68;3.40;;;;;;;;;;5005630;28;20240;-66
2022/06/25 06:01:05;;;;;;;6.97;3.15;;;;;;;;;;5023484;28;20212;-67
2022/06/25 06:03:30;;;;;;;6.65;3.78;;;;;;;;;;5023063;28;20223;-66
2022/06/25 06:05:58;;;;;;;6.97;3.67;;;;;;;;;;5005912;28;20564;-66
2022/06/25 06:08:23;;;;;;;6.70;3.63;;;;;;;;;;5022680;28;20733;-66
2022/06/25 06:10:48;;;;;;;6.80;3.28;;;;;;;;;;5007066;28;20687;-66
2022/06/25 06:13:13;;;;;;;7.10;3.67;;;;;;;;;;4996540;28;20555;-66
2022/06/25 06:15:39;;;;;;;7.75;3.30;;;;;;;;;;4996114;28;20216;-66
2022/06/25 06:18:05;;;;;;;7.07;2.90;;;;;;;;;;4997431;28;20216;-66
2022/06/25 06:20:30;;;;;;;5.40;2.80;;;;;;;;;;5003632;28;20292;-65
2022/06/25 06:22:56;;;;;;;6.15;2.70;;;;;;;;;;5003929;28;20725;-65
2022/06/25 06:25:21;;;;;;;6.45;2.78;;;;;;;;;;5002716;28;20354;-66
2022/06/25 06:27:47;;;;;;;6.03;2.80;;;;;;;;;;5003887;28;20785;-66
2022/06/25 06:30:12;;;;;;;6.13;2.80;;;;;;;;;;5003219;28;20749;-65
2022/06/25 06:32:38;;;;;;;4.57;2.60;;;;;;;;;;5002876;28;20725;-65
2022/06/25 06:35:03;;;;;;;6.13;2.85;;;;;;;;;;4995882;28;20219;-66
2022/06/25 06:37:28;;;;;;;5.40;2.75;;;;;;;;;;4997773;28;20807;-65
2022/06/25 06:39:54;;;;;;;5.63;2.60;;;;;;;;;;5014746;28;20232;-65
2022/06/25 06:42:19;;;;;;;4.82;2.70;;;;;;;;;;5022015;28;20211;-65
2022/06/25 06:44:44;;;;;;;5.28;2.60;;;;;;;;;;5009130;28;20224;-65
2022/06/25 06:47:10;;;;;;;5.07;2.78;;;;;;;;;;5002460;28;20212;-65
2022/06/25 06:49:35;;;;;;;5.57;2.45;;;;;;;;;;5003385;28;20216;-65
2022/06/25 06:52:00;;;;;;;6.93;2.78;;;;;;;;;;5002207;28;20225;-68
2022/06/25 06:54:25;;;;;;;6.63;2.45;;;;;;;;;;5003446;28;20217;-66
2022/06/25 06:56:53;;;;;;;6.07;2.30;;;;;;;;;;4998154;28;20282;-66
2022/06/25 06:59:18;;;;;;;4.93;2.00;;;;;;;;;;4994283;28;20231;-65
2022/06/25 07:01:43;;;;;;;5.63;2.30;;;;;;;;;;5005373;28;20208;-66
2022/06/25 07:04:08;;;;;;;6.15;2.35;;;;;;;;;;5012248;28;20671;-66
2022/06/25 07:06:34;;;;;;;5.20;2.30;;;;;;;;;;5031674;28;20208;-65
2022/06/25 07:08:59;;;;;;;3.60;2.20;;;;;;;;;;5032185;28;20235;-64
2022/06/25 07:11:30;;;;;;;5.57;2.38;;;;;;;;;;5031785;28;20287;-65
2022/06/25 07:13:56;;;;;;;7.95;2.53;;;;;;;;;;5031361;28;20586;-65
2022/06/25 07:16:22;;;;;;;8.00;2.45;;;;;;;;;;5031522;28;20204;-66
2022/06/25 07:18:47;;;;;;;4.03;2.45;;;;;;;;;;5013845;28;20591;-65
2022/06/25 07:21:13;;;;;;;5.90;2.70;;;;;;;;;;5012605;28;20231;-66
2022/06/25 07:23:38;;;;;;;6.80;2.42;;;;;;;;;;5031862;28;20211;-66
2022/06/25 07:26:03;;;;;;;5.43;2.35;;;;;;;;;;5031595;28;20216;-65
2022/06/25 07:28:28;;;;;;;5.28;2.55;;;;;;;;;;5031242;28;20208;-65
2022/06/25 07:30:54;;;;;;;5.85;2.38;;;;;;;;;;5031499;28;20616;-64
2022/06/25 07:33:19;;;;;;;3.05;2.05;;;;;;;;;;5031227;28;20290;-65
2022/06/25 07:35:44;;;;;;;5.32;2.33;;;;;;;;;;5036649;28;20203;-65
2022/06/25 07:38:10;;;;;;;6.20;2.50;;;;;;;;;;5051247;28;20226;-66
2022/06/25 07:40:35;;;;;;;6.47;1.95;;;;;;;;;;5051665;28;20210;-65
2022/06/25 07:43:02;;;;;;;5.55;2.15;;;;;;;;;;5051102;28;20312;-65
2022/06/25 07:45:27;;;;;;;6.53;2.28;;;;;;;;;;5031034;28;20212;-65
2022/06/25 07:47:52;;;;;;;4.43;1.85;;;;;;;;;;5030427;28;20217;-64
2022/06/25 07:53:21;;;;;;;2.85;1.70;;;;;;;;;;5030997;28;20222;-65
2022/06/25 07:55:46;;;;;;;5.00;2.47;;;;;;;;;;5030631;28;20224;-64
2022/06/25 07:58:12;;;;;;;3.05;2.22;;;;;;;;;;5030500;28;20227;-65
2022/06/25 08:00:37;;;;;;;4.03;1.92;;;;;;;;;;5032745;28;20623;-66
2022/06/25 08:03:03;;;;;;;4.22;2.17;;;;;;;;;;5035594;28;20598;-67
2022/06/25 08:05:28;;;;;;;3.42;2.00;;;;;;;;;;5032708;28;20301;-66
2022/06/25 08:07:53;;;;;;;4.25;1.90;;;;;;;;;;5051374;28;20208;-67
2022/06/25 08:10:19;;;;;;;4.75;1.83;;;;;;;;;;5048661;28;20235;-67
2022/06/25 08:12:44;;;;;;;4.28;2.00;;;;;;;;;;5050646;28;20533;-67
2022/06/25 08:15:10;;;;;;;5.10;1.88;;;;;;;;;;5050290;28;20215;-65
2022/06/25 08:17:35;;;;;;;3.80;2.10;;;;;;;;;;5032559;28;20238;-65
2022/06/25 08:20:01;;;;;;;3.85;1.85;;;;;;;;;;5050583;28;20299;-66
2022/06/25 08:22:26;;;;;;;5.32;1.98;;;;;;;;;;5051417;28;20606;-66
2022/06/25 08:24:52;;;;;;;3.83;1.58;;;;;;;;;;5050685;28;20211;-65
2022/06/25 08:27:17;;;;;;;4.30;1.60;;;;;;;;;;5050196;28;20257;-66
2022/06/25 08:29:42;;;;;;;3.33;1.30;;;;;;;;;;5050929;28;20225;-66
2022/06/25 08:32:08;;;;;;;2.38;1.40;;;;;;;;;;5052571;28;20203;-66
2022/06/25 08:34:33;;;;;;;6.10;1.70;;;;;;;;;;5055104;28;20211;-66
2022/06/25 08:36:59;;;;;;;2.40;1.35;;;;;;;;;;5055015;28;20330;-65
2022/06/25 08:39:24;;;;;;;6.10;1.60;;;;;;;;;;5053791;28;20215;-65
2022/06/25 08:41:49;;;;;;;3.45;1.45;;;;;;;;;;5037096;28;20215;-64
2022/06/25 08:44:15;;;;;;;4.85;1.45;;;;;;;;;;5054236;28;20568;-65
2022/06/25 08:46:40;;;;;;;2.60;1.60;;;;;;;;;;5053853;28;20214;-64
2022/06/25 08:49:05;;;;;;;3.95;1.48;;;;;;;;;;5054382;28;20211;-65
2022/06/25 08:51:31;;;;;;;3.25;1.40;;;;;;;;;;5053888;28;20207;-64
2022/06/25 08:53:56;;;;;;;3.60;1.30;;;;;;;;;;5055025;28;20253;-64
2022/06/25 08:56:22;;;;;;;4.13;1.10;;;;;;;;;;5054068;28;20673;-65
2022/06/25 08:58:47;;;;;;;3.15;1.20;;;;;;;;;;5053469;28;20281;-65
2022/06/25 09:01:12;;;;;;;4.22;1.20;;;;;;;;;;5053779;28;20241;-65
2022/06/25 09:03:39;;;;;;;2.72;1.15;;;;;;;;;;5054474;28;20306;-65
2022/06/25 09:06:11;;;;;;;2.78;1.00;;;;;;;;;;5035867;28;20326;-65
2022/06/25 09:08:36;;;;;;;5.57;1.40;;;;;;;;;;5054664;28;20207;-64
2022/06/25 09:11:01;;;;;;;3.40;1.00;;;;;;;;;;5054109;28;20211;-64
2022/06/25 09:13:27;;;;;;;3.92;1.50;;;;;;;;;;5053187;28;20207;-64
2022/06/25 09:15:52;;;;;;;4.88;1.50;;;;;;;;;;5054213;28;20239;-64
2022/06/25 09:18:18;;;;;;;3.50;1.13;;;;;;;;;;5053330;28;20214;-64
2022/06/25 09:20:56;;;;;;;3.08;1.55;;;;;;;;;;5053568;28;20221;-64
2022/06/25 09:23:21;;;;;;;4.63;1.35;;;;;;;;;;5053874;28;20260;-64
2022/06/25 09:25:46;;;;;;;5.47;1.30;;;;;;;;;;5054121;28;20215;-64
2022/06/25 09:28:23;;;;;;;4.10;1.27;;;;;;;;;;5034502;28;20356;-65
2022/06/25 09:30:48;;;;;;;3.40;1.65;;;;;;;;;;5035860;28;20210;-64
2022/06/25 09:33:13;;;;;;;3.50;1.40;;;;;;;;;;5053428;28;20306;-64
2022/06/25 09:35:41;;;;;;;4.95;1.30;;;;;;;;;;5053382;28;20219;-65
2022/06/25 09:38:08;;;;;;;3.58;1.20;;;;;;;;;;5053173;28;20559;-65
2022/06/25 09:40:34;;;;;;;2.88;0.98;;;;;;;;;;5053553;28;20226;-65
2022/06/25 09:42:59;;;;;;;3.08;1.00;;;;;;;;;;5034396;28;20203;-65
2022/06/25 09:45:25;;;;;;;2.38;1.00;;;;;;;;;;5035333;28;20242;-65
2022/06/25 09:47:50;;;;;;;1.85;1.00;;;;;;;;;;5052932;28;20355;-65
2022/06/25 09:50:16;;;;;;;2.15;1.00;;;;;;;;;;5053224;28;20234;-66
2022/06/25 09:52:49;;;;;;;2.55;0.80;;;;;;;;;;5035941;28;20704;-65
2022/06/25 09:55:14;;;;;;;2.55;0.80;;;;;;;;;;5052322;28;20253;-66
2022/06/25 09:57:39;;;;;;;3.72;1.08;;;;;;;;;;5035250;28;20717;-65
2022/06/25 10:00:05;;;;;;;1.17;0.80;;;;;;;;;;5034980;28;20227;-64
2022/06/25 10:02:30;;;;;;;3.03;0.90;;;;;;;;;;5052717;28;20678;-64
2022/06/25 10:04:59;;;;;;;2.83;0.80;;;;;;;;;;5035931;28;20233;-65
2022/06/25 10:07:59;;;;;;;2.55;1.00;;;;;;;;;;5035135;28;20238;-65
2022/06/25 10:10:10;;;;;;;5.65;1.00;;;;;;;;;;5051812;28;20208;-66
2022/06/25 10:12:36;;;;;;;2.33;0.90;;;;;;;;;;5052988;28;20207;-64
2022/06/25 10:15:02;;;;;;;3.38;1.20;;;;;;;;;;5036240;28;20679;-64
2022/06/25 10:17:28;;;;;;;5.22;1.40;;;;;;;;;;5023051;28;20212;-65
2022/06/25 10:19:54;;;;;;;2.97;1.17;;;;;;;;;;5033302;28;20235;-64
2022/06/25 10:22:19;;;;;;;2.15;1.20;;;;;;;;;;5032496;28;20750;-65
2022/06/25 10:24:44;;;;;;;3.88;1.40;;;;;;;;;;5014758;28;20216;-64
2022/06/25 10:27:10;;;;;;;2.38;1.27;;;;;;;;;;5032448;28;20208;-66
2022/06/25 10:29:36;;;;;;;2.58;1.20;;;;;;;;;;5032722;28;20222;-65
2022/06/25 10:32:12;;;;;;;2.30;1.33;;;;;;;;;;5032176;28;20223;-65
2022/06/25 10:34:37;;;;;;;2.83;1.00;;;;;;;;;;5032957;28;20222;-65
2022/06/25 10:37:03;;;;;;;2.90;1.10;;;;;;;;;;5031895;28;20215;-65
2022/06/25 10:39:28;;;;;;;4.82;0.90;;;;;;;;;;5032564;28;20585;-64
2022/06/25 10:45:05;;;;;;;3.20;1.00;;;;;;;;;;5035534;28;20269;-64
2022/06/25 10:47:37;;;;;;;3.40;1.25;;;;;;;;;;5039631;28;20207;-65
2022/06/25 10:50:21;;;;;;;4.28;0.90;;;;;;;;;;5022402;28;20269;-65
2022/06/25 10:53:05;;;;;;;4.00;1.27;;;;;;;;;;5031941;28;20215;-65
2022/06/25 10:55:38;;;;;;;3.67;1.00;;;;;;;;;;5039933;28;20212;-64
2022/06/25 10:58:10;;;;;;;2.90;0.98;;;;;;;;;;5039136;28;20227;-65
2022/06/25 11:00:46;;;;;;;2.88;1.20;;;;;;;;;;5032081;28;20211;-65
2022/06/25 11:03:11;;;;;;;2.38;1.08;;;;;;;;;;5032045;28;20306;-66
2022/06/25 11:05:43;;;;;;;4.50;1.35;;;;;;;;;;5031845;28;20345;-66
2022/06/25 11:08:09;;;;;;;4.10;1.05;;;;;;;;;;5014221;28;20215;-65
2022/06/25 11:10:34;;;;;;;4.90;1.10;;;;;;;;;;5032178;28;20310;-64
2022/06/25 11:13:00;;;;;;;3.45;1.15;;;;;;;;;;5031136;28;20211;-65
2022/06/25 11:15:25;;;;;;;3.63;1.00;;;;;;;;;;5013644;28;20234;-65
2022/06/25 11:17:50;;;;;;;3.90;1.20;;;;;;;;;;5032381;28;20678;-65
2022/06/25 11:20:17;;;;;;;2.33;0.80;;;;;;;;;;5030608;28;20227;-65
2022/06/25 11:22:48;;;;;;;3.33;1.17;;;;;;;;;;5032423;28;20706;-64
2022/06/25 11:30:42;;;;;;;3.53;1.50;;;;;;;;;;5031626;28;20218;-64
2022/06/25 11:33:09;;;;;;;4.47;1.27;;;;;;;;;;5031283;28;20216;-66
2022/06/25 11:35:39;;;;;;;3.60;1.20;;;;;;;;;;5014061;28;20291;-64
2022/06/25 11:38:12;;;;;;;3.08;1.00;;;;;;;;;;5031234;28;20258;-64
2022/06/25 11:40:37;;;;;;;3.78;1.17;;;;;;;;;;5030653;28;20226;-64
2022/06/25 11:43:08;;;;;;;3.10;1.30;;;;;;;;;;5031348;28;20302;-65
2022/06/25 11:45:45;;;;;;;3.17;1.30;;;;;;;;;;5031712;28;20215;-64
2022/06/25 11:48:11;;;;;;;3.58;1.13;;;;;;;;;;5030258;28;20306;-64
2022/06/25 11:50:36;;;;;;;4.18;1.30;;;;;;;;;;5031124;28;20690;-64
2022/06/25 11:53:01;;;;;;;2.53;1.30;;;;;;;;;;5013279;28;20746;-65
2022/06/25 11:55:27;;;;;;;4.93;1.38;;;;;;;;;;5013250;28;20207;-66
2022/06/25 11:57:52;;;;;;;4.60;1.40;;;;;;;;;;5031460;28;20403;-64
2022/06/25 12:00:18;;;;;;;2.58;1.55;;;;;;;;;;5030937;28;20227;-65
2022/06/25 12:02:43;;;;;;;3.70;1.30;;;;;;;;;;5030639;28;20220;-65
2022/06/25 12:05:09;;;;;;;3.88;1.10;;;;;;;;;;5030191;28;20215;-64
2022/06/25 12:07:34;;;;;;;3.13;1.20;;;;;;;;;;5031091;28;20295;-65
2022/06/25 12:10:01;;;;;;;4.15;1.30;;;;;;;;;;5030496;28;20204;-65
2022/06/25 12:12:26;;;;;;;4.97;1.30;;;;;;;;;;5032359;28;20216;-65
2022/06/25 12:14:53;;;;;;;5.10;1.42;;;;;;;;;;5011844;28;20200;-65
2022/06/25 12:17:19;;;;;;;4.70;1.10;;;;;;;;;;4992382;28;20224;-65
2022/06/25 12:19:50;;;;;;;4.00;0.95;;;;;;;;;;5011147;28;20259;-64
2022/06/25 12:22:24;;;;;;;2.42;0.90;;;;;;;;;;5010729;28;20209;-64
2022/06/25 12:24:49;;;;;;;2.95;1.55;;;;;;;;;;5011436;28;20220;-64
2022/06/25 12:27:15;;;;;;;3.58;1.30;;;;;;;;;;5011142;28;20208;-64
2022/06/25 12:29:40;;;;;;;3.35;1.35;;;;;;;;;;5010676;28;20673;-65
2022/06/25 12:32:05;;;;;;;3.17;1.42;;;;;;;;;;5020937;28;20262;-65
2022/06/25 12:34:31;;;;;;;3.22;1.30;;;;;;;;;;5006144;28;20774;-65
2022/06/25 12:36:56;;;;;;;3.22;1.30;;;;;;;;;;5011508;28;20240;-65
2022/06/25 12:39:26;;;;;;;4.10;1.10;;;;;;;;;;5016628;28;20581;-64
2022/06/25 12:41:52;;;;;;;4.53;1.40;;;;;;;;;;5013974;28;20250;-64
2022/06/25 12:44:19;;;;;;;5.18;1.30;;;;;;;;;;5005138;28;20267;-65
2022/06/25 12:46:57;;;;;;;2.90;1.02;;;;;;;;;;5024458;28;20809;-64
2022/06/25 12:49:22;;;;;;;7.88;1.40;;;;;;;;;;5021070;28;20219;-64
2022/06/25 12:51:47;;;;;;;3.20;1.17;;;;;;;;;;5005331;28;20217;-64
2022/06/25 12:54:12;;;;;;;4.32;1.10;;;;;;;;;;5005262;28;20251;-65
2022/06/25 12:56:38;;;;;;;3.22;1.20;;;;;;;;;;5000050;28;20251;-64
2022/06/25 12:59:04;;;;;;;3.67;1.20;;;;;;;;;;4996270;28;20614;-65
2022/06/25 13:01:30;;;;;;;3.40;1.17;;;;;;;;;;5010874;28;20289;-64
2022/06/25 13:03:55;;;;;;;4.43;1.10;;;;;;;;;;5042454;28;20254;-64
2022/06/25 13:06:21;;;;;;;3.85;1.00;;;;;;;;;;5041555;28;20333;-64
2022/06/25 13:08:46;;;;;;;3.30;0.80;;;;;;;;;;5025232;28;20227;-64
2022/06/25 13:11:18;;;;;;;2.63;0.85;;;;;;;;;;5043929;28;20203;-65
2022/06/25 13:13:43;;;;;;;2.92;1.02;;;;;;;;;;5026834;28;20702;-64
2022/06/25 13:16:09;;;;;;;3.65;0.90;;;;;;;;;;5024782;28;20232;-65
2022/06/25 13:18:34;;;;;;;2.35;0.77;;;;;;;;;;5022852;28;20223;-65
2022/06/25 13:21:00;;;;;;;3.03;0.90;;;;;;;;;;5039068;28;20596;-65
2022/06/25 13:23:25;;;;;;;4.00;1.15;;;;;;;;;;5021924;28;20621;-64
2022/06/25 13:25:50;;;;;;;2.17;0.85;;;;;;;;;;5043396;28;20230;-64
2022/06/25 13:28:15;;;;;;;15.60;1.30;;;;;;;;;;5047612;28;20219;-65
2022/06/25 13:30:41;;;;;;;3.08;0.95;;;;;;;;;;5041230;28;20215;-65
2022/06/25 13:33:06;;;;;;;2.17;0.98;;;;;;;;;;5026372;28;20561;-65
2022/06/25 13:35:32;;;;;;;1.75;1.00;;;;;;;;;;5014013;28;20239;-65
2022/06/25 13:37:57;;;;;;;3.65;0.90;;;;;;;;;;5014159;28;20300;-65
2022/06/25 13:40:22;;;;;;;4.07;0.90;;;;;;;;;;5013174;28;20575;-64
2022/06/25 13:42:47;;;;;;;2.90;0.70;;;;;;;;;;5014235;28;20223;-64
2022/06/25 13:45:13;;;;;;;3.92;1.00;;;;;;;;;;5031482;28;20251;-64
2022/06/25 13:47:38;;;;;;;1.75;1.00;;;;;;;;;;5032879;28;20219;-64
2022/06/25 13:50:04;;;;;;;7.20;1.10;;;;;;;;;;5032822;28;20551;-65
2022/06/25 13:52:29;;;;;;;1.48;0.73;;;;;;;;;;5033730;28;20556;-64
2022/06/25 13:54:54;;;;;;;3.10;0.95;;;;;;;;;;5033284;28;20223;-64
2022/06/25 13:57:20;;;;;;;4.25;1.20;;;;;;;;;;5033042;28;20579;-64
2022/06/25 13:59:45;;;;;;;2.17;0.90;;;;;;;;;;5033353;28;20267;-64
2022/06/25 14:02:10;;;;;;;5.57;1.10;;;;;;;;;;5032108;28;20247;-65
2022/06/25 14:04:36;;;;;;;3.45;0.80;;;;;;;;;;5033216;28;20219;-64
2022/06/25 14:07:01;;;;;;;4.32;1.05;;;;;;;;;;5032988;28;20215;-66
2022/06/25 14:09:26;;;;;;;4.25;1.00;;;;;;;;;;5032610;28;20223;-64
2022/06/25 14:11:52;;;;;;;2.45;0.88;;;;;;;;;;5033392;28;20231;-64
2022/06/25 14:14:17;;;;;;;3.40;0.80;;;;;;;;;;5015282;28;20235;-64
2022/06/25 14:16:42;;;;;;;2.63;0.88;;;;;;;;;;5032303;28;20836;-64
2022/06/25 14:19:08;;;;;;;5.15;0.90;;;;;;;;;;5031968;28;20706;-65
2022/06/25 14:21:33;;;;;;;3.78;1.20;;;;;;;;;;5033335;28;20219;-65
2022/06/25 14:23:59;;;;;;;2.70;0.95;;;;;;;;;;5032254;28;20235;-64
2022/06/25 14:26:24;;;;;;;2.33;1.00;;;;;;;;;;5032833;28;20231;-64
2022/06/25 14:28:49;;;;;;;2.97;0.90;;;;;;;;;;5032761;28;20235;-64
2022/06/25 14:31:15;;;;;;;5.60;1.25;;;;;;;;;;5031413;28;20212;-64
2022/06/25 14:33:40;;;;;;;2.05;0.80;;;;;;;;;;5032407;28;20216;-64
2022/06/25 14:44:18;;;;;;;2.05;0.90;;;;;;;;;;5045579;28;20693;-64
2022/06/25 14:46:43;;;;;;;4.10;0.88;;;;;;;;;;5052733;28;20218;-64
2022/06/25 14:49:08;;;;;;;3.33;0.70;;;;;;;;;;5051999;28;20682;-64
2022/06/25 14:51:34;;;;;;;4.00;0.98;;;;;;;;;;5051921;28;20207;-64
2022/06/25 14:53:59;;;;;;;2.20;0.90;;;;;;;;;;5052288;28;20215;-64
2022/06/25 14:56:24;;;;;;;2.63;0.82;;;;;;;;;;5051792;28;20215;-64
2022/06/25 14:58:50;;;;;;;4.18;0.82;;;;;;;;;;5050978;28;20254;-64
2022/06/25 15:01:15;;;;;;;2.55;1.00;;;;;;;;;;5051879;28;20268;-64
2022/06/25 15:03:40;;;;;;;3.63;0.90;;;;;;;;;;5052492;28;20294;-64
2022/06/25 15:06:06;;;;;;;3.00;0.95;;;;;;;;;;5051031;28;20558;-65